sensor_id;sensor_type;location;lat;lon;timestamp;P1;durP1;ratioP1;P2;durP2;ratioP2
36629;SDS011;36256;42.154;23.002;2023-10-19T00:02:06;14.15;;;11.75;;
36629;SDS011;36256;42.154;23.002;2023-10-19T00:04:41;13.73;;;11.90;;
36629;SDS011;36256;42.154;23.002;2023-10-19T00:07:08;12.40;;;10.23;;
36629;SDS011;36256;42.154;23.002;2023-10-19T00:09:42;12.23;;;10.93;;
36629;SDS011;36256;42.154;23.002;2023-10-19T00:12:12;13.38;;;11.52;;
36629;SDS011;36256;42.154;23.002;2023-10-19T00:14:41;14.75;;;12.23;;
36629;SDS011;36256;42.154;23.002;2023-10-19T00:17:08;16.60;;;11.82;;
36629;SDS011;36256;42.154;23.002;2023-10-19T00:19:37;16.17;;;12.82;;
36629;SDS011;36256;42.154;23.002;2023-10-19T00:22:06;15.50;;;12.02;;
36629;SDS011;36256;42.154;23.002;2023-10-19T00:24:42;11.80;;;10.55;;
36629;SDS011;36256;42.154;23.002;2023-10-19T00:27:10;13.02;;;11.10;;
36629;SDS011;36256;42.154;23.002;2023-10-19T00:29:43;16.10;;;10.82;;
36629;SDS011;36256;42.154;23.002;2023-10-19T00:32:16;13.23;;;11.00;;
36629;SDS011;36256;42.154;23.002;2023-10-19T00:34:44;13.85;;;10.82;;
36629;SDS011;36256;42.154;23.002;2023-10-19T00:37:19;15.88;;;11.65;;
36629;SDS011;36256;42.154;23.002;2023-10-19T00:39:58;13.80;;;11.65;;
36629;SDS011;36256;42.154;23.002;2023-10-19T00:42:41;14.05;;;11.82;;
36629;SDS011;36256;42.154;23.002;2023-10-19T00:45:19;16.23;;;12.13;;
36629;SDS011;36256;42.154;23.002;2023-10-19T00:47:52;15.85;;;12.10;;
36629;SDS011;36256;42.154;23.002;2023-10-19T00:50:19;15.38;;;11.30;;
36629;SDS011;36256;42.154;23.002;2023-10-19T00:52:49;15.50;;;11.63;;
36629;SDS011;36256;42.154;23.002;2023-10-19T00:55:16;14.82;;;11.20;;
36629;SDS011;36256;42.154;23.002;2023-10-19T00:57:47;14.20;;;11.63;;
36629;SDS011;36256;42.154;23.002;2023-10-19T01:00:15;13.48;;;11.63;;
36629;SDS011;36256;42.154;23.002;2023-10-19T01:02:56;15.00;;;12.40;;
36629;SDS011;36256;42.154;23.002;2023-10-19T01:05:26;13.63;;;11.60;;
36629;SDS011;36256;42.154;23.002;2023-10-19T01:08:03;12.73;;;11.35;;
36629;SDS011;36256;42.154;23.002;2023-10-19T01:10:45;12.50;;;10.63;;
36629;SDS011;36256;42.154;23.002;2023-10-19T01:13:18;11.90;;;10.60;;
36629;SDS011;36256;42.154;23.002;2023-10-19T01:15:53;12.02;;;10.65;;
36629;SDS011;36256;42.154;23.002;2023-10-19T01:18:22;12.00;;;10.70;;
36629;SDS011;36256;42.154;23.002;2023-10-19T01:20:55;11.98;;;10.63;;
36629;SDS011;36256;42.154;23.002;2023-10-19T01:23:22;14.30;;;11.30;;
36629;SDS011;36256;42.154;23.002;2023-10-19T01:25:52;15.60;;;11.02;;
36629;SDS011;36256;42.154;23.002;2023-10-19T01:28:33;14.85;;;11.43;;
36629;SDS011;36256;42.154;23.002;2023-10-19T01:31:27;13.88;;;11.85;;
36629;SDS011;36256;42.154;23.002;2023-10-19T01:33:57;14.40;;;12.00;;
36629;SDS011;36256;42.154;23.002;2023-10-19T01:36:25;13.52;;;11.60;;
36629;SDS011;36256;42.154;23.002;2023-10-19T01:38:53;15.63;;;11.70;;
36629;SDS011;36256;42.154;23.002;2023-10-19T01:41:22;13.00;;;11.60;;
36629;SDS011;36256;42.154;23.002;2023-10-19T01:43:50;13.90;;;11.55;;
36629;SDS011;36256;42.154;23.002;2023-10-19T01:46:22;12.20;;;10.90;;
36629;SDS011;36256;42.154;23.002;2023-10-19T01:48:58;18.83;;;12.43;;
36629;SDS011;36256;42.154;23.002;2023-10-19T01:51:25;12.67;;;11.30;;
36629;SDS011;36256;42.154;23.002;2023-10-19T01:53:53;13.18;;;11.27;;
36629;SDS011;36256;42.154;23.002;2023-10-19T01:56:22;11.95;;;10.70;;
36629;SDS011;36256;42.154;23.002;2023-10-19T01:58:49;13.40;;;11.05;;
36629;SDS011;36256;42.154;23.002;2023-10-19T02:01:21;13.30;;;11.48;;
36629;SDS011;36256;42.154;23.002;2023-10-19T02:03:55;17.38;;;12.88;;
36629;SDS011;36256;42.154;23.002;2023-10-19T02:06:27;15.77;;;12.95;;
36629;SDS011;36256;42.154;23.002;2023-10-19T02:09:03;17.17;;;12.07;;
36629;SDS011;36256;42.154;23.002;2023-10-19T02:11:44;14.75;;;12.20;;
36629;SDS011;36256;42.154;23.002;2023-10-19T02:14:15;15.15;;;12.20;;
36629;SDS011;36256;42.154;23.002;2023-10-19T02:16:47;16.30;;;12.20;;
36629;SDS011;36256;42.154;23.002;2023-10-19T02:19:18;19.65;;;12.95;;
36629;SDS011;36256;42.154;23.002;2023-10-19T02:21:50;18.95;;;13.55;;
36629;SDS011;36256;42.154;23.002;2023-10-19T02:24:18;18.27;;;13.38;;
36629;SDS011;36256;42.154;23.002;2023-10-19T02:26:47;24.60;;;14.10;;
36629;SDS011;36256;42.154;23.002;2023-10-19T02:29:17;18.70;;;13.43;;
36629;SDS011;36256;42.154;23.002;2023-10-19T02:31:45;21.55;;;13.07;;
36629;SDS011;36256;42.154;23.002;2023-10-19T02:34:14;21.65;;;14.23;;
36629;SDS011;36256;42.154;23.002;2023-10-19T02:36:42;18.13;;;13.02;;
36629;SDS011;36256;42.154;23.002;2023-10-19T02:39:11;18.63;;;13.82;;
36629;SDS011;36256;42.154;23.002;2023-10-19T02:41:41;20.45;;;14.23;;
36629;SDS011;36256;42.154;23.002;2023-10-19T02:44:18;19.23;;;13.88;;
36629;SDS011;36256;42.154;23.002;2023-10-19T02:46:45;21.52;;;13.43;;
36629;SDS011;36256;42.154;23.002;2023-10-19T02:49:17;20.38;;;13.73;;
36629;SDS011;36256;42.154;23.002;2023-10-19T02:51:46;22.33;;;14.35;;
36629;SDS011;36256;42.154;23.002;2023-10-19T02:54:15;23.75;;;14.73;;
36629;SDS011;36256;42.154;23.002;2023-10-19T02:56:47;21.25;;;15.45;;
36629;SDS011;36256;42.154;23.002;2023-10-19T02:59:16;22.52;;;14.95;;
36629;SDS011;36256;42.154;23.002;2023-10-19T03:01:48;20.75;;;14.32;;
36629;SDS011;36256;42.154;23.002;2023-10-19T03:04:28;20.40;;;14.32;;
36629;SDS011;36256;42.154;23.002;2023-10-19T03:06:56;20.88;;;14.23;;
36629;SDS011;36256;42.154;23.002;2023-10-19T03:09:22;22.70;;;14.48;;
36629;SDS011;36256;42.154;23.002;2023-10-19T03:11:55;20.45;;;14.70;;
36629;SDS011;36256;42.154;23.002;2023-10-19T03:14:26;23.95;;;14.55;;
36629;SDS011;36256;42.154;23.002;2023-10-19T03:16:53;17.70;;;13.35;;
36629;SDS011;36256;42.154;23.002;2023-10-19T03:19:24;19.83;;;14.20;;
36629;SDS011;36256;42.154;23.002;2023-10-19T03:21:54;18.45;;;14.00;;
36629;SDS011;36256;42.154;23.002;2023-10-19T03:24:22;23.25;;;14.30;;
36629;SDS011;36256;42.154;23.002;2023-10-19T03:27:11;20.10;;;13.48;;
36629;SDS011;36256;42.154;23.002;2023-10-19T03:29:42;15.52;;;12.70;;
36629;SDS011;36256;42.154;23.002;2023-10-19T03:32:15;17.55;;;12.65;;
36629;SDS011;36256;42.154;23.002;2023-10-19T03:34:48;16.98;;;13.25;;
36629;SDS011;36256;42.154;23.002;2023-10-19T03:37:16;17.35;;;13.63;;
36629;SDS011;36256;42.154;23.002;2023-10-19T03:39:46;16.90;;;12.48;;
36629;SDS011;36256;42.154;23.002;2023-10-19T03:42:13;18.90;;;13.02;;
36629;SDS011;36256;42.154;23.002;2023-10-19T03:44:40;17.40;;;13.02;;
36629;SDS011;36256;42.154;23.002;2023-10-19T03:47:13;17.58;;;13.07;;
36629;SDS011;36256;42.154;23.002;2023-10-19T03:49:45;17.98;;;12.40;;
36629;SDS011;36256;42.154;23.002;2023-10-19T03:52:13;14.48;;;11.88;;
36629;SDS011;36256;42.154;23.002;2023-10-19T03:54:40;21.27;;;12.98;;
36629;SDS011;36256;42.154;23.002;2023-10-19T03:57:16;22.35;;;13.82;;
36629;SDS011;36256;42.154;23.002;2023-10-19T03:59:51;20.70;;;14.43;;
36629;SDS011;36256;42.154;23.002;2023-10-19T04:02:24;22.38;;;14.80;;
36629;SDS011;36256;42.154;23.002;2023-10-19T04:09:49;22.17;;;14.07;;
36629;SDS011;36256;42.154;23.002;2023-10-19T04:12:35;26.23;;;15.43;;
36629;SDS011;36256;42.154;23.002;2023-10-19T04:15:04;21.45;;;15.93;;
36629;SDS011;36256;42.154;23.002;2023-10-19T04:17:38;20.33;;;14.38;;
36629;SDS011;36256;42.154;23.002;2023-10-19T04:20:15;21.02;;;13.13;;
36629;SDS011;36256;42.154;23.002;2023-10-19T04:22:43;19.17;;;13.57;;
36629;SDS011;36256;42.154;23.002;2023-10-19T04:25:14;19.85;;;14.32;;
36629;SDS011;36256;42.154;23.002;2023-10-19T04:27:43;21.42;;;14.88;;
36629;SDS011;36256;42.154;23.002;2023-10-19T04:32:43;18.77;;;13.73;;
36629;SDS011;36256;42.154;23.002;2023-10-19T04:35:11;18.83;;;13.32;;
36629;SDS011;36256;42.154;23.002;2023-10-19T04:37:52;22.30;;;13.70;;
36629;SDS011;36256;42.154;23.002;2023-10-19T04:40:20;20.88;;;13.77;;
36629;SDS011;36256;42.154;23.002;2023-10-19T04:42:53;20.30;;;13.52;;
36629;SDS011;36256;42.154;23.002;2023-10-19T04:45:21;19.92;;;13.63;;
36629;SDS011;36256;42.154;23.002;2023-10-19T04:47:51;23.05;;;15.30;;
36629;SDS011;36256;42.154;23.002;2023-10-19T04:50:21;21.30;;;14.55;;
36629;SDS011;36256;42.154;23.002;2023-10-19T04:52:48;23.02;;;14.93;;
36629;SDS011;36256;42.154;23.002;2023-10-19T04:55:15;20.52;;;14.50;;
36629;SDS011;36256;42.154;23.002;2023-10-19T04:57:42;21.58;;;14.63;;
36629;SDS011;36256;42.154;23.002;2023-10-19T05:00:08;27.90;;;14.75;;
36629;SDS011;36256;42.154;23.002;2023-10-19T05:02:40;22.80;;;14.30;;
36629;SDS011;36256;42.154;23.002;2023-10-19T05:07:35;31.42;;;19.52;;
36629;SDS011;36256;42.154;23.002;2023-10-19T05:10:02;25.00;;;15.85;;
36629;SDS011;36256;42.154;23.002;2023-10-19T05:12:31;27.02;;;14.80;;
36629;SDS011;36256;42.154;23.002;2023-10-19T05:14:58;26.63;;;16.15;;
36629;SDS011;36256;42.154;23.002;2023-10-19T05:17:25;25.10;;;15.23;;
36629;SDS011;36256;42.154;23.002;2023-10-19T05:19:54;27.50;;;16.58;;
36629;SDS011;36256;42.154;23.002;2023-10-19T05:22:21;24.77;;;16.10;;
36629;SDS011;36256;42.154;23.002;2023-10-19T05:24:51;25.92;;;16.80;;
36629;SDS011;36256;42.154;23.002;2023-10-19T05:27:18;29.50;;;18.67;;
36629;SDS011;36256;42.154;23.002;2023-10-19T05:29:46;30.27;;;17.73;;
36629;SDS011;36256;42.154;23.002;2023-10-19T05:32:13;26.63;;;18.35;;
36629;SDS011;36256;42.154;23.002;2023-10-19T05:34:40;25.75;;;17.83;;
36629;SDS011;36256;42.154;23.002;2023-10-19T05:37:07;24.80;;;17.65;;
36629;SDS011;36256;42.154;23.002;2023-10-19T05:39:35;28.92;;;18.00;;
36629;SDS011;36256;42.154;23.002;2023-10-19T05:42:03;25.33;;;18.13;;
36629;SDS011;36256;42.154;23.002;2023-10-19T05:44:30;27.35;;;17.33;;
36629;SDS011;36256;42.154;23.002;2023-10-19T05:46:58;20.10;;;14.35;;
36629;SDS011;36256;42.154;23.002;2023-10-19T05:49:26;17.02;;;13.48;;
36629;SDS011;36256;42.154;23.002;2023-10-19T05:51:55;18.65;;;13.38;;
36629;SDS011;36256;42.154;23.002;2023-10-19T05:54:22;23.77;;;14.02;;
36629;SDS011;36256;42.154;23.002;2023-10-19T05:56:50;18.10;;;13.40;;
36629;SDS011;36256;42.154;23.002;2023-10-19T05:59:19;16.90;;;12.88;;
36629;SDS011;36256;42.154;23.002;2023-10-19T06:01:46;16.48;;;12.52;;
36629;SDS011;36256;42.154;23.002;2023-10-19T06:04:13;16.60;;;11.82;;
36629;SDS011;36256;42.154;23.002;2023-10-19T06:06:42;16.40;;;12.30;;
36629;SDS011;36256;42.154;23.002;2023-10-19T06:09:09;15.95;;;12.15;;
36629;SDS011;36256;42.154;23.002;2023-10-19T06:11:35;15.02;;;12.23;;
36629;SDS011;36256;42.154;23.002;2023-10-19T06:14:04;14.05;;;10.80;;
36629;SDS011;36256;42.154;23.002;2023-10-19T06:16:33;18.27;;;11.70;;
36629;SDS011;36256;42.154;23.002;2023-10-19T06:21:28;15.68;;;11.10;;
36629;SDS011;36256;42.154;23.002;2023-10-19T06:23:56;15.40;;;11.27;;
36629;SDS011;36256;42.154;23.002;2023-10-19T06:26:23;17.10;;;11.20;;
36629;SDS011;36256;42.154;23.002;2023-10-19T06:28:49;15.68;;;11.90;;
36629;SDS011;36256;42.154;23.002;2023-10-19T06:33:43;15.02;;;11.82;;
36629;SDS011;36256;42.154;23.002;2023-10-19T06:36:10;16.00;;;12.18;;
36629;SDS011;36256;42.154;23.002;2023-10-19T06:38:37;17.77;;;12.17;;
36629;SDS011;36256;42.154;23.002;2023-10-19T06:41:10;18.98;;;12.93;;
36629;SDS011;36256;42.154;23.002;2023-10-19T06:43:38;18.48;;;12.77;;
36629;SDS011;36256;42.154;23.002;2023-10-19T06:46:06;18.10;;;13.20;;
36629;SDS011;36256;42.154;23.002;2023-10-19T06:48:34;19.58;;;14.57;;
36629;SDS011;36256;42.154;23.002;2023-10-19T06:51:01;33.47;;;18.23;;
36629;SDS011;36256;42.154;23.002;2023-10-19T06:53:28;38.08;;;20.58;;
36629;SDS011;36256;42.154;23.002;2023-10-19T06:55:55;68.60;;;32.55;;
36629;SDS011;36256;42.154;23.002;2023-10-19T06:58:22;163.98;;;67.63;;
36629;SDS011;36256;42.154;23.002;2023-10-19T07:00:53;101.85;;;46.78;;
36629;SDS011;36256;42.154;23.002;2023-10-19T07:03:23;324.10;;;117.63;;
36629;SDS011;36256;42.154;23.002;2023-10-19T07:05:51;290.48;;;165.60;;
36629;SDS011;36256;42.154;23.002;2023-10-19T07:08:19;187.63;;;108.95;;
36629;SDS011;36256;42.154;23.002;2023-10-19T07:10:47;82.50;;;53.75;;
36629;SDS011;36256;42.154;23.002;2023-10-19T07:13:17;36.25;;;23.10;;
36629;SDS011;36256;42.154;23.002;2023-10-19T07:15:44;25.83;;;16.05;;
36629;SDS011;36256;42.154;23.002;2023-10-19T07:18:12;21.83;;;14.98;;
36629;SDS011;36256;42.154;23.002;2023-10-19T07:20:40;18.42;;;13.60;;
36629;SDS011;36256;42.154;23.002;2023-10-19T07:23:08;17.48;;;12.80;;
36629;SDS011;36256;42.154;23.002;2023-10-19T07:25:45;18.13;;;13.75;;
36629;SDS011;36256;42.154;23.002;2023-10-19T07:28:15;18.40;;;13.73;;
36629;SDS011;36256;42.154;23.002;2023-10-19T07:30:43;16.58;;;13.27;;
36629;SDS011;36256;42.154;23.002;2023-10-19T07:33:10;16.60;;;12.73;;
36629;SDS011;36256;42.154;23.002;2023-10-19T07:35:44;16.92;;;12.27;;
36629;SDS011;36256;42.154;23.002;2023-10-19T07:38:19;16.58;;;12.30;;
36629;SDS011;36256;42.154;23.002;2023-10-19T07:40:49;16.38;;;11.82;;
36629;SDS011;36256;42.154;23.002;2023-10-19T07:43:19;16.77;;;11.23;;
36629;SDS011;36256;42.154;23.002;2023-10-19T07:45:47;14.02;;;11.13;;
36629;SDS011;36256;42.154;23.002;2023-10-19T07:48:14;13.18;;;10.50;;
36629;SDS011;36256;42.154;23.002;2023-10-19T07:50:42;17.55;;;13.23;;
36629;SDS011;36256;42.154;23.002;2023-10-19T07:53:09;20.05;;;13.63;;
36629;SDS011;36256;42.154;23.002;2023-10-19T07:55:36;18.58;;;13.55;;
36629;SDS011;36256;42.154;23.002;2023-10-19T07:58:05;15.52;;;12.13;;
36629;SDS011;36256;42.154;23.002;2023-10-19T08:00:35;16.67;;;12.60;;
36629;SDS011;36256;42.154;23.002;2023-10-19T08:03:03;16.50;;;12.23;;
36629;SDS011;36256;42.154;23.002;2023-10-19T08:05:35;17.95;;;11.82;;
36629;SDS011;36256;42.154;23.002;2023-10-19T08:08:02;13.73;;;11.60;;
36629;SDS011;36256;42.154;23.002;2023-10-19T08:10:31;13.45;;;11.40;;
36629;SDS011;36256;42.154;23.002;2023-10-19T08:12:58;14.52;;;10.63;;
36629;SDS011;36256;42.154;23.002;2023-10-19T08:15:26;17.40;;;11.05;;
36629;SDS011;36256;42.154;23.002;2023-10-19T08:17:55;14.13;;;11.02;;
36629;SDS011;36256;42.154;23.002;2023-10-19T08:20:21;13.73;;;11.07;;
36629;SDS011;36256;42.154;23.002;2023-10-19T08:22:58;14.52;;;10.40;;
36629;SDS011;36256;42.154;23.002;2023-10-19T08:25:28;14.05;;;9.73;;
36629;SDS011;36256;42.154;23.002;2023-10-19T08:28:15;16.88;;;8.90;;
36629;SDS011;36256;42.154;23.002;2023-10-19T08:30:42;12.50;;;8.50;;
36629;SDS011;36256;42.154;23.002;2023-10-19T08:33:11;12.48;;;9.57;;
36629;SDS011;36256;42.154;23.002;2023-10-19T08:35:40;14.98;;;10.27;;
36629;SDS011;36256;42.154;23.002;2023-10-19T08:38:07;11.82;;;8.05;;
36629;SDS011;36256;42.154;23.002;2023-10-19T08:40:38;10.32;;;7.90;;
36629;SDS011;36256;42.154;23.002;2023-10-19T08:43:06;11.98;;;7.95;;
36629;SDS011;36256;42.154;23.002;2023-10-19T08:45:36;12.27;;;7.95;;
36629;SDS011;36256;42.154;23.002;2023-10-19T08:48:03;9.70;;;7.65;;
36629;SDS011;36256;42.154;23.002;2023-10-19T08:50:32;8.52;;;7.25;;
36629;SDS011;36256;42.154;23.002;2023-10-19T08:53:04;9.05;;;7.65;;
36629;SDS011;36256;42.154;23.002;2023-10-19T08:55:35;6.93;;;6.03;;
36629;SDS011;36256;42.154;23.002;2023-10-19T08:58:15;4.78;;;3.55;;
36629;SDS011;36256;42.154;23.002;2023-10-19T09:00:45;7.13;;;3.45;;
36629;SDS011;36256;42.154;23.002;2023-10-19T09:03:14;7.68;;;3.33;;
36629;SDS011;36256;42.154;23.002;2023-10-19T09:05:43;5.30;;;3.10;;
36629;SDS011;36256;42.154;23.002;2023-10-19T09:08:13;4.22;;;3.65;;
36629;SDS011;36256;42.154;23.002;2023-10-19T09:10:42;5.85;;;3.60;;
36629;SDS011;36256;42.154;23.002;2023-10-19T09:13:12;6.47;;;3.50;;
36629;SDS011;36256;42.154;23.002;2023-10-19T09:15:41;4.53;;;2.88;;
36629;SDS011;36256;42.154;23.002;2023-10-19T09:18:20;3.60;;;2.88;;
36629;SDS011;36256;42.154;23.002;2023-10-19T09:20:52;4.28;;;2.78;;
36629;SDS011;36256;42.154;23.002;2023-10-19T09:23:23;4.68;;;3.13;;
36629;SDS011;36256;42.154;23.002;2023-10-19T09:25:53;4.47;;;2.72;;
36629;SDS011;36256;42.154;23.002;2023-10-19T09:28:22;6.57;;;2.70;;
36629;SDS011;36256;42.154;23.002;2023-10-19T09:30:50;5.90;;;2.38;;
36629;SDS011;36256;42.154;23.002;2023-10-19T09:33:18;2.30;;;2.10;;
36629;SDS011;36256;42.154;23.002;2023-10-19T09:35:48;3.72;;;2.40;;
36629;SDS011;36256;42.154;23.002;2023-10-19T09:38:19;5.88;;;2.55;;
36629;SDS011;36256;42.154;23.002;2023-10-19T09:40:49;10.38;;;2.70;;
36629;SDS011;36256;42.154;23.002;2023-10-19T09:43:21;4.05;;;2.28;;
36629;SDS011;36256;42.154;23.002;2023-10-19T09:45:56;3.08;;;2.22;;
36629;SDS011;36256;42.154;23.002;2023-10-19T09:48:26;3.08;;;2.17;;
36629;SDS011;36256;42.154;23.002;2023-10-19T09:50:55;2.90;;;2.30;;
36629;SDS011;36256;42.154;23.002;2023-10-19T09:53:28;16.52;;;2.63;;
36629;SDS011;36256;42.154;23.002;2023-10-19T09:55:59;2.75;;;2.03;;
36629;SDS011;36256;42.154;23.002;2023-10-19T09:58:36;4.60;;;2.28;;
36629;SDS011;36256;42.154;23.002;2023-10-19T10:01:10;3.03;;;2.03;;
36629;SDS011;36256;42.154;23.002;2023-10-19T10:06:28;2.95;;;2.10;;
36629;SDS011;36256;42.154;23.002;2023-10-19T10:08:55;3.17;;;2.35;;
36629;SDS011;36256;42.154;23.002;2023-10-19T10:11:23;2.55;;;1.70;;
36629;SDS011;36256;42.154;23.002;2023-10-19T10:13:55;3.80;;;2.08;;
36629;SDS011;36256;42.154;23.002;2023-10-19T10:16:27;2.60;;;2.10;;
36629;SDS011;36256;42.154;23.002;2023-10-19T10:18:56;4.32;;;1.88;;
36629;SDS011;36256;42.154;23.002;2023-10-19T10:21:28;12.38;;;2.42;;
36629;SDS011;36256;42.154;23.002;2023-10-19T10:23:57;2.47;;;1.95;;
36629;SDS011;36256;42.154;23.002;2023-10-19T10:26:29;2.28;;;2.00;;
36629;SDS011;36256;42.154;23.002;2023-10-19T10:29:21;3.17;;;1.98;;
36629;SDS011;36256;42.154;23.002;2023-10-19T10:31:53;4.43;;;1.80;;
36629;SDS011;36256;42.154;23.002;2023-10-19T10:37:07;5.50;;;2.47;;
36629;SDS011;36256;42.154;23.002;2023-10-19T10:39:35;2.38;;;1.88;;
36629;SDS011;36256;42.154;23.002;2023-10-19T10:42:04;3.13;;;2.00;;
36629;SDS011;36256;42.154;23.002;2023-10-19T10:44:38;2.50;;;2.00;;
36629;SDS011;36256;42.154;23.002;2023-10-19T10:47:10;2.65;;;1.85;;
36629;SDS011;36256;42.154;23.002;2023-10-19T10:55:07;3.10;;;2.05;;
36629;SDS011;36256;42.154;23.002;2023-10-19T10:57:42;3.40;;;2.10;;
36629;SDS011;36256;42.154;23.002;2023-10-19T11:00:10;2.30;;;1.90;;
36629;SDS011;36256;42.154;23.002;2023-10-19T11:02:43;4.82;;;2.58;;
36629;SDS011;36256;42.154;23.002;2023-10-19T11:05:13;2.38;;;2.17;;
36629;SDS011;36256;42.154;23.002;2023-10-19T11:07:41;2.30;;;2.10;;
36629;SDS011;36256;42.154;23.002;2023-10-19T11:10:29;4.00;;;2.00;;
36629;SDS011;36256;42.154;23.002;2023-10-19T11:13:03;12.52;;;2.72;;
36629;SDS011;36256;42.154;23.002;2023-10-19T11:15:31;2.97;;;2.35;;
36629;SDS011;36256;42.154;23.002;2023-10-19T11:17:59;3.45;;;2.25;;
36629;SDS011;36256;42.154;23.002;2023-10-19T11:20:26;1.92;;;1.80;;
36629;SDS011;36256;42.154;23.002;2023-10-19T11:22:56;2.08;;;1.85;;
36629;SDS011;36256;42.154;23.002;2023-10-19T11:25:25;2.33;;;1.98;;
36629;SDS011;36256;42.154;23.002;2023-10-19T11:27:57;2.30;;;1.98;;
36629;SDS011;36256;42.154;23.002;2023-10-19T11:30:25;2.10;;;1.80;;
36629;SDS011;36256;42.154;23.002;2023-10-19T11:32:53;2.10;;;1.80;;
36629;SDS011;36256;42.154;23.002;2023-10-19T11:35:24;3.58;;;1.90;;
36629;SDS011;36256;42.154;23.002;2023-10-19T11:37:52;1.90;;;1.73;;
36629;SDS011;36256;42.154;23.002;2023-10-19T11:40:21;2.03;;;1.75;;
36629;SDS011;36256;42.154;23.002;2023-10-19T11:42:49;2.92;;;1.70;;
36629;SDS011;36256;42.154;23.002;2023-10-19T11:45:17;5.00;;;1.98;;
36629;SDS011;36256;42.154;23.002;2023-10-19T11:47:44;3.85;;;1.90;;
36629;SDS011;36256;42.154;23.002;2023-10-19T11:50:12;1.98;;;1.80;;
36629;SDS011;36256;42.154;23.002;2023-10-19T11:52:43;2.97;;;1.45;;
36629;SDS011;36256;42.154;23.002;2023-10-19T11:55:12;3.45;;;1.90;;
36629;SDS011;36256;42.154;23.002;2023-10-19T11:57:42;3.03;;;1.80;;
36629;SDS011;36256;42.154;23.002;2023-10-19T12:00:10;3.08;;;1.80;;
36629;SDS011;36256;42.154;23.002;2023-10-19T12:02:48;10.75;;;2.17;;
36629;SDS011;36256;42.154;23.002;2023-10-19T12:05:15;2.95;;;1.67;;
36629;SDS011;36256;42.154;23.002;2023-10-19T12:07:42;3.33;;;1.60;;
36629;SDS011;36256;42.154;23.002;2023-10-19T12:10:11;3.42;;;1.60;;
36629;SDS011;36256;42.154;23.002;2023-10-19T12:12:38;2.95;;;1.55;;
36629;SDS011;36256;42.154;23.002;2023-10-19T12:15:23;8.55;;;1.90;;
36629;SDS011;36256;42.154;23.002;2023-10-19T12:17:52;1.75;;;1.55;;
36629;SDS011;36256;42.154;23.002;2023-10-19T12:20:21;14.57;;;2.08;;
36629;SDS011;36256;42.154;23.002;2023-10-19T12:22:51;2.80;;;1.70;;
36629;SDS011;36256;42.154;23.002;2023-10-19T12:25:21;3.92;;;1.88;;
36629;SDS011;36256;42.154;23.002;2023-10-19T12:28:18;2.53;;;1.65;;
36629;SDS011;36256;42.154;23.002;2023-10-19T12:30:45;1.70;;;1.60;;
36629;SDS011;36256;42.154;23.002;2023-10-19T12:33:12;2.65;;;1.92;;
36629;SDS011;36256;42.154;23.002;2023-10-19T12:35:41;1.88;;;1.48;;
36629;SDS011;36256;42.154;23.002;2023-10-19T12:38:12;1.65;;;1.50;;
36629;SDS011;36256;42.154;23.002;2023-10-19T12:40:43;2.80;;;1.92;;
36629;SDS011;36256;42.154;23.002;2023-10-19T12:43:10;2.38;;;1.70;;
36629;SDS011;36256;42.154;23.002;2023-10-19T12:45:39;1.88;;;1.65;;
36629;SDS011;36256;42.154;23.002;2023-10-19T12:50:34;5.05;;;1.48;;
36629;SDS011;36256;42.154;23.002;2023-10-19T12:53:01;3.42;;;1.58;;
36629;SDS011;36256;42.154;23.002;2023-10-19T12:55:28;2.83;;;1.88;;
36629;SDS011;36256;42.154;23.002;2023-10-19T12:57:54;2.20;;;1.80;;
36629;SDS011;36256;42.154;23.002;2023-10-19T13:00:23;2.47;;;1.70;;
36629;SDS011;36256;42.154;23.002;2023-10-19T13:02:50;1.60;;;1.50;;
36629;SDS011;36256;42.154;23.002;2023-10-19T13:05:17;4.32;;;1.65;;
36629;SDS011;36256;42.154;23.002;2023-10-19T13:07:47;7.03;;;1.65;;
36629;SDS011;36256;42.154;23.002;2023-10-19T13:10:13;5.53;;;1.90;;
36629;SDS011;36256;42.154;23.002;2023-10-19T13:12:40;2.53;;;1.70;;
36629;SDS011;36256;42.154;23.002;2023-10-19T13:15:08;3.30;;;1.98;;
36629;SDS011;36256;42.154;23.002;2023-10-19T13:17:39;2.53;;;1.50;;
36629;SDS011;36256;42.154;23.002;2023-10-19T13:20:06;1.70;;;1.60;;
36629;SDS011;36256;42.154;23.002;2023-10-19T13:22:42;6.07;;;1.73;;
36629;SDS011;36256;42.154;23.002;2023-10-19T13:25:09;1.98;;;1.77;;
36629;SDS011;36256;42.154;23.002;2023-10-19T13:27:39;3.17;;;1.90;;
36629;SDS011;36256;42.154;23.002;2023-10-19T13:30:09;2.33;;;1.80;;
36629;SDS011;36256;42.154;23.002;2023-10-19T13:32:37;2.47;;;1.83;;
36629;SDS011;36256;42.154;23.002;2023-10-19T13:35:04;44.67;;;4.38;;
36629;SDS011;36256;42.154;23.002;2023-10-19T13:39:59;2.80;;;1.50;;
36629;SDS011;36256;42.154;23.002;2023-10-19T13:42:25;1.70;;;1.40;;
36629;SDS011;36256;42.154;23.002;2023-10-19T13:44:52;1.80;;;1.70;;
36629;SDS011;36256;42.154;23.002;2023-10-19T13:47:20;2.45;;;1.67;;
36629;SDS011;36256;42.154;23.002;2023-10-19T13:49:46;6.53;;;1.85;;
36629;SDS011;36256;42.154;23.002;2023-10-19T13:52:13;2.05;;;1.85;;
36629;SDS011;36256;42.154;23.002;2023-10-19T13:54:41;1.88;;;1.52;;
36629;SDS011;36256;42.154;23.002;2023-10-19T13:57:08;3.38;;;1.90;;
36629;SDS011;36256;42.154;23.002;2023-10-19T13:59:36;1.75;;;1.63;;
36629;SDS011;36256;42.154;23.002;2023-10-19T14:02:03;9.68;;;1.90;;
36629;SDS011;36256;42.154;23.002;2023-10-19T14:04:30;3.05;;;1.70;;
36629;SDS011;36256;42.154;23.002;2023-10-19T14:06:57;3.30;;;1.58;;
36629;SDS011;36256;42.154;23.002;2023-10-19T14:09:24;2.08;;;1.50;;
36629;SDS011;36256;42.154;23.002;2023-10-19T14:11:52;3.47;;;1.80;;
36629;SDS011;36256;42.154;23.002;2023-10-19T14:14:20;1.73;;;1.50;;
36629;SDS011;36256;42.154;23.002;2023-10-19T14:16:47;1.70;;;1.40;;
36629;SDS011;36256;42.154;23.002;2023-10-19T14:19:16;2.45;;;1.88;;
36629;SDS011;36256;42.154;23.002;2023-10-19T14:21:45;15.02;;;2.90;;
36629;SDS011;36256;42.154;23.002;2023-10-19T14:24:13;2.33;;;1.98;;
36629;SDS011;36256;42.154;23.002;2023-10-19T14:26:40;3.00;;;2.00;;
36629;SDS011;36256;42.154;23.002;2023-10-19T14:29:09;4.55;;;1.98;;
36629;SDS011;36256;42.154;23.002;2023-10-19T14:31:35;2.22;;;1.88;;
36629;SDS011;36256;42.154;23.002;2023-10-19T14:34:02;4.75;;;2.20;;
36629;SDS011;36256;42.154;23.002;2023-10-19T14:38:56;6.15;;;3.30;;
36629;SDS011;36256;42.154;23.002;2023-10-19T14:41:23;3.03;;;2.30;;
36629;SDS011;36256;42.154;23.002;2023-10-19T14:43:50;4.55;;;2.40;;
36629;SDS011;36256;42.154;23.002;2023-10-19T14:46:16;4.40;;;2.10;;
36629;SDS011;36256;42.154;23.002;2023-10-19T14:48:44;2.65;;;2.25;;
36629;SDS011;36256;42.154;23.002;2023-10-19T14:51:11;3.03;;;2.17;;
36629;SDS011;36256;42.154;23.002;2023-10-19T14:53:38;8.63;;;2.88;;
36629;SDS011;36256;42.154;23.002;2023-10-19T14:56:04;3.95;;;2.38;;
36629;SDS011;36256;42.154;23.002;2023-10-19T14:58:32;3.88;;;2.40;;
36629;SDS011;36256;42.154;23.002;2023-10-19T15:00:59;5.68;;;2.20;;
36629;SDS011;36256;42.154;23.002;2023-10-19T15:03:26;4.63;;;2.22;;
36629;SDS011;36256;42.154;23.002;2023-10-19T15:05:55;4.35;;;2.20;;
36629;SDS011;36256;42.154;23.002;2023-10-19T15:08:22;5.55;;;2.75;;